createdAt,value
2022-08-27T00:01:28.728Z,16.85
2022-08-27T00:03:56.604Z,16.88
2022-08-27T00:06:25.033Z,16.80
2022-08-27T00:08:53.443Z,16.27
2022-08-27T00:11:25.372Z,16.05
2022-08-27T00:13:53.307Z,14.98
2022-08-27T00:16:21.239Z,16.02
2022-08-27T00:18:49.338Z,15.20
2022-08-27T00:21:17.616Z,16.90
2022-08-27T00:23:45.314Z,15.45
2022-08-27T00:26:13.777Z,17.10
2022-08-27T00:28:43.154Z,16.58
2022-08-27T00:31:12.192Z,16.35
2022-08-27T00:33:40.235Z,16.30
2022-08-27T00:36:08.315Z,15.82
2022-08-27T00:38:36.279Z,15.50
2022-08-27T00:41:04.012Z,15.10
2022-08-27T00:43:43.690Z,16.70
2022-08-27T00:46:19.284Z,15.93
2022-08-27T00:48:47.292Z,16.08
2022-08-27T00:51:14.988Z,15.90
2022-08-27T00:53:42.613Z,16.92
2022-08-27T00:56:15.609Z,16.25
2022-08-27T00:58:45.452Z,16.13
2022-08-27T01:01:16.273Z,16.08
2022-08-27T01:03:47.383Z,15.20
2022-08-27T01:06:16.567Z,15.73
2022-08-27T01:08:47.082Z,16.50
2022-08-27T01:11:14.989Z,15.27
2022-08-27T01:13:58.815Z,15.07
2022-08-27T01:16:33.937Z,15.05
2022-08-27T01:19:02.119Z,15.73
2022-08-27T01:21:36.675Z,15.05
2022-08-27T01:24:07.639Z,14.70
2022-08-27T01:26:36.998Z,14.70
2022-08-27T01:29:04.894Z,15.32
2022-08-27T01:31:32.682Z,14.75
2022-08-27T01:34:04.509Z,15.05
2022-08-27T01:36:32.404Z,14.75
2022-08-27T01:39:00.149Z,14.63
2022-08-27T01:41:28.373Z,14.38
2022-08-27T01:43:57.979Z,13.65
2022-08-27T01:46:27.549Z,14.05
2022-08-27T01:48:55.841Z,13.10
2022-08-27T01:51:23.738Z,13.15
2022-08-27T01:53:51.521Z,13.07
2022-08-27T01:56:19.232Z,13.68
2022-08-27T01:58:47.162Z,12.23
2022-08-27T02:01:17.436Z,12.93
2022-08-27T02:03:47.302Z,12.43
2022-08-27T02:06:15.806Z,11.93
2022-08-27T02:08:43.745Z,12.05
2022-08-27T02:11:11.396Z,11.88
2022-08-27T02:13:39.220Z,11.80
2022-08-27T02:16:07.338Z,12.18
2022-08-27T02:18:38.479Z,11.90
2022-08-27T02:21:09.369Z,11.55
2022-08-27T02:23:37.185Z,11.45
2022-08-27T02:26:04.853Z,11.80
2022-08-27T02:28:32.588Z,11.88
2022-08-27T02:31:00.847Z,11.45
2022-08-27T02:33:28.691Z,11.75
2022-08-27T02:35:57.684Z,11.23
2022-08-27T02:38:25.813Z,11.93
2022-08-27T02:40:54.300Z,11.45
2022-08-27T02:43:25.287Z,11.85
2022-08-27T02:45:53.308Z,11.23
2022-08-27T02:48:21.432Z,11.27
2022-08-27T02:50:49.173Z,11.95
2022-08-27T02:53:18.786Z,10.88
2022-08-27T02:55:46.901Z,11.18
2022-08-27T02:58:16.795Z,11.60
2022-08-27T03:00:44.563Z,10.88
2022-08-27T03:03:12.327Z,12.13
2022-08-27T03:05:40.532Z,11.98
2022-08-27T03:08:08.823Z,11.50
2022-08-27T03:10:38.184Z,11.20
2022-08-27T03:13:05.896Z,11.40
2022-08-27T03:15:33.562Z,11.30
2022-08-27T03:18:19.873Z,11.10
2022-08-27T03:20:50.419Z,11.30
2022-08-27T03:23:19.016Z,11.55
2022-08-27T03:25:51.466Z,11.90
2022-08-27T03:28:22.444Z,11.55
2022-08-27T03:30:52.186Z,11.48
2022-08-27T03:33:20.786Z,12.25
2022-08-27T03:35:51.742Z,11.98
2022-08-27T03:38:19.932Z,11.80
2022-08-27T03:40:49.463Z,11.75
2022-08-27T03:43:18.672Z,12.18
2022-08-27T03:45:50.377Z,11.30
2022-08-27T03:48:30.425Z,11.90
2022-08-27T03:50:58.113Z,11.95
2022-08-27T03:53:26.107Z,11.98
2022-08-27T03:55:55.138Z,11.68
2022-08-27T03:58:22.839Z,12.05
2022-08-27T04:00:50.567Z,11.82
2022-08-27T04:03:18.471Z,12.32
2022-08-27T04:05:46.118Z,11.50
2022-08-27T04:08:14.080Z,11.60
2022-08-27T04:10:41.927Z,11.95
2022-08-27T04:13:11.262Z,11.93
2022-08-27T04:15:43.857Z,12.40
2022-08-27T04:18:12.033Z,11.85
2022-08-27T04:20:40.111Z,12.55
2022-08-27T04:23:07.918Z,11.77
2022-08-27T04:25:35.888Z,12.50
2022-08-27T04:28:04.093Z,12.75
2022-08-27T04:30:33.512Z,12.10
2022-08-27T04:33:01.468Z,11.93
2022-08-27T04:35:29.489Z,12.10
2022-08-27T04:37:57.586Z,11.65
2022-08-27T04:40:46.116Z,12.07
2022-08-27T04:43:14.778Z,11.95
2022-08-27T04:45:49.251Z,12.32
2022-08-27T04:48:19.276Z,11.77
2022-08-27T04:50:48.276Z,11.88
2022-08-27T04:53:18.071Z,11.95
2022-08-27T04:55:46.656Z,13.30
2022-08-27T04:58:15.098Z,12.13
2022-08-27T05:00:44.009Z,12.35
2022-08-27T05:03:13.368Z,12.00
2022-08-27T05:05:42.691Z,11.77
2022-08-27T05:08:12.517Z,12.10
2022-08-27T05:10:41.833Z,11.80
2022-08-27T05:13:09.840Z,12.50
2022-08-27T05:15:37.857Z,11.88
2022-08-27T05:18:05.914Z,12.00
2022-08-27T05:20:38.906Z,12.10
2022-08-27T05:23:06.599Z,11.90
2022-08-27T05:25:39.221Z,11.40
2022-08-27T05:28:07.076Z,12.38
2022-08-27T05:30:37.408Z,12.00
2022-08-27T05:33:05.257Z,12.05
2022-08-27T05:35:33.838Z,13.10
2022-08-27T05:38:03.091Z,12.27
2022-08-27T05:40:31.035Z,12.25
2022-08-27T05:42:59.050Z,12.60
2022-08-27T05:45:27.080Z,12.55
2022-08-27T05:47:55.302Z,12.05
2022-08-27T05:50:23.783Z,12.50
2022-08-27T05:52:51.735Z,12.15
2022-08-27T05:55:21.066Z,11.93
2022-08-27T05:57:48.858Z,12.55
2022-08-27T06:00:34.706Z,12.23
2022-08-27T06:03:02.614Z,11.38
2022-08-27T06:05:30.551Z,12.75
2022-08-27T06:07:58.414Z,11.55
2022-08-27T06:10:27.785Z,12.23
2022-08-27T06:12:57.136Z,11.93
2022-08-27T06:15:25.042Z,11.50
2022-08-27T06:17:53.105Z,12.00
2022-08-27T06:20:20.874Z,12.32
2022-08-27T06:22:48.754Z,11.75
2022-08-27T06:25:16.889Z,11.40
2022-08-27T06:27:46.970Z,11.68
2022-08-27T06:30:17.524Z,11.35
2022-08-27T06:32:45.634Z,11.98
2022-08-27T06:35:13.385Z,11.32
2022-08-27T06:37:41.315Z,12.13
2022-08-27T06:40:10.824Z,12.15
2022-08-27T06:42:38.587Z,11.70
2022-08-27T06:45:10.611Z,12.43
2022-08-27T06:47:38.317Z,12.50
2022-08-27T06:50:06.999Z,11.38
2022-08-27T06:52:34.729Z,12.18
2022-08-27T06:55:02.634Z,12.43
2022-08-27T06:57:30.373Z,12.20
2022-08-27T06:59:58.167Z,12.05
2022-08-27T07:02:29.092Z,11.85
2022-08-27T07:04:56.969Z,11.88
2022-08-27T07:07:31.168Z,11.68
2022-08-27T07:10:04.242Z,12.38
2022-08-27T07:12:32.337Z,12.05
2022-08-27T07:15:00.027Z,13.13
2022-08-27T07:17:29.053Z,12.50
2022-08-27T07:19:56.785Z,12.65
2022-08-27T07:22:24.495Z,13.05
2022-08-27T07:24:53.646Z,12.75
2022-08-27T07:27:21.889Z,13.77
2022-08-27T07:29:49.547Z,12.40
2022-08-27T07:32:18.365Z,12.98
2022-08-27T07:34:47.603Z,13.68
2022-08-27T07:37:15.720Z,12.55
2022-08-27T07:39:43.451Z,12.50
2022-08-27T07:42:28.459Z,12.73
2022-08-27T07:44:56.233Z,12.20
2022-08-27T07:47:24.156Z,12.68
2022-08-27T07:49:54.672Z,13.13
2022-08-27T07:52:25.991Z,12.60
2022-08-27T07:54:54.420Z,13.00
2022-08-27T07:57:22.114Z,13.30
2022-08-27T07:59:49.817Z,12.77
2022-08-27T08:02:17.613Z,13.15
2022-08-27T08:04:45.344Z,13.07
2022-08-27T08:07:14.610Z,13.20
2022-08-27T08:09:42.322Z,14.85
2022-08-27T08:12:10.617Z,15.45
2022-08-27T08:14:38.323Z,14.90
2022-08-27T08:17:10.620Z,13.50
2022-08-27T08:19:38.909Z,14.40
2022-08-27T08:22:06.574Z,14.13
2022-08-27T08:24:36.465Z,14.18
2022-08-27T08:27:07.476Z,13.80
2022-08-27T08:29:35.799Z,14.03
2022-08-27T08:32:04.169Z,15.10
2022-08-27T08:34:32.133Z,13.75
2022-08-27T08:37:00.318Z,15.05
2022-08-27T08:39:28.201Z,15.38
2022-08-27T08:42:01.609Z,15.10
2022-08-27T08:44:37.056Z,15.80
2022-08-27T08:47:08.608Z,14.63
2022-08-27T08:49:42.389Z,15.20
2022-08-27T08:52:30.601Z,15.05
2022-08-27T08:55:06.632Z,14.40
2022-08-27T08:57:40.008Z,15.32
2022-08-27T09:00:12.476Z,15.10
2022-08-27T09:02:41.298Z,14.43
2022-08-27T09:05:11.531Z,15.52
2022-08-27T09:07:45.759Z,15.45
2022-08-27T09:10:21.238Z,15.35
2022-08-27T09:12:52.194Z,16.13
2022-08-27T09:15:21.838Z,16.45
2022-08-27T09:17:50.682Z,16.50
2022-08-27T09:20:20.668Z,15.80
2022-08-27T09:22:59.433Z,15.52
2022-08-27T09:25:30.454Z,16.85
2022-08-27T09:28:56.493Z,15.43
2022-08-27T09:31:25.520Z,16.58
2022-08-27T09:33:56.520Z,17.15
2022-08-27T09:36:25.219Z,16.45
2022-08-27T09:38:54.672Z,16.27
2022-08-27T09:41:28.383Z,15.98
2022-08-27T09:44:00.379Z,17.33
2022-08-27T09:46:30.030Z,18.10
2022-08-27T09:48:57.674Z,15.65
2022-08-27T09:51:27.702Z,16.75
2022-08-27T09:53:57.117Z,16.15
2022-08-27T09:56:29.525Z,16.73
2022-08-27T09:59:03.868Z,15.80
2022-08-27T10:01:34.423Z,17.60
2022-08-27T10:04:07.538Z,16.38
2022-08-27T10:06:35.549Z,17.27
2022-08-27T10:09:07.855Z,17.20
2022-08-27T10:11:38.906Z,18.20
2022-08-27T10:14:13.703Z,16.13
2022-08-27T10:16:57.078Z,16.17
2022-08-27T10:19:38.644Z,16.05
2022-08-27T10:22:13.524Z,15.80
2022-08-27T10:24:53.323Z,17.73
2022-08-27T10:27:27.333Z,17.30
2022-08-27T10:30:02.062Z,15.63
2022-08-27T10:32:43.781Z,15.90
2022-08-27T10:35:16.400Z,17.70
2022-08-27T10:37:52.259Z,16.88
2022-08-27T10:40:23.519Z,16.10
2022-08-27T10:42:59.688Z,16.17
2022-08-27T10:45:41.580Z,17.23
2022-08-27T10:48:23.242Z,15.82
2022-08-27T10:50:55.621Z,17.45
2022-08-27T10:53:32.176Z,16.67
2022-08-27T10:56:11.320Z,15.63
2022-08-27T10:58:49.460Z,16.35
2022-08-27T11:01:22.089Z,14.98
2022-08-27T11:03:54.603Z,14.35
2022-08-27T11:06:26.306Z,15.27
2022-08-27T11:08:58.942Z,15.25
2022-08-27T11:12:10.503Z,14.80
2022-08-27T11:14:26.814Z,14.50
2022-08-27T11:16:58.171Z,14.70
2022-08-27T11:19:33.062Z,14.10
2022-08-27T11:22:06.423Z,16.48
2022-08-27T11:24:39.646Z,16.73
2022-08-27T11:27:09.155Z,14.65
2022-08-27T11:29:43.207Z,15.25
2022-08-27T11:32:19.391Z,15.40
2022-08-27T11:34:52.272Z,18.75
2022-08-27T11:37:38.748Z,19.00
2022-08-27T11:40:32.697Z,15.27
2022-08-27T11:43:04.321Z,15.82
2022-08-27T11:45:38.260Z,15.20
2022-08-27T11:48:18.211Z,15.52
2022-08-27T11:50:56.850Z,14.00
2022-08-27T11:53:42.820Z,14.85
2022-08-27T11:56:38.829Z,14.60
2022-08-27T11:59:12.793Z,15.68
2022-08-27T12:01:40.941Z,18.92
2022-08-27T12:04:23.648Z,16.33
2022-08-27T12:07:00.703Z,18.30
2022-08-27T12:09:28.942Z,18.17
2022-08-27T12:12:04.650Z,22.58
2022-08-27T12:14:44.602Z,18.75
2022-08-27T12:17:18.001Z,16.75
2022-08-27T12:19:57.560Z,15.52
2022-08-27T12:22:55.539Z,18.10
2022-08-27T12:25:23.656Z,17.60
2022-08-27T12:27:57.566Z,18.63
2022-08-27T12:30:31.497Z,19.13
2022-08-27T12:33:01.153Z,21.85
2022-08-27T12:35:34.055Z,16.52
2022-08-27T12:38:11.722Z,16.35
2022-08-27T12:40:41.983Z,16.00
2022-08-27T12:43:13.497Z,15.95
2022-08-27T12:45:44.679Z,17.10
2022-08-27T12:48:12.582Z,16.30
2022-08-27T12:50:40.420Z,17.70
2022-08-27T12:53:27.607Z,16.52
2022-08-27T12:56:01.219Z,20.50
2022-08-27T12:58:40.188Z,18.63
2022-08-27T13:01:29.225Z,16.83
2022-08-27T13:03:57.741Z,16.10
2022-08-27T13:06:29.453Z,15.45
2022-08-27T13:09:00.108Z,15.32
2022-08-27T13:11:29.912Z,15.38
2022-08-27T13:14:08.439Z,15.68
2022-08-27T13:16:39.779Z,18.27
2022-08-27T13:19:08.166Z,18.30
2022-08-27T13:21:35.815Z,17.25
2022-08-27T13:24:06.587Z,15.60
2022-08-27T13:26:37.431Z,15.32
2022-08-27T13:29:06.611Z,14.30
2022-08-27T13:31:35.761Z,15.43
2022-08-27T13:34:06.315Z,15.75
2022-08-27T13:36:36.578Z,21.23
2022-08-27T13:39:07.127Z,17.95
2022-08-27T13:41:36.409Z,23.05
2022-08-27T13:44:08.575Z,15.13
2022-08-27T13:46:46.163Z,18.77
2022-08-27T13:49:18.834Z,18.50
2022-08-27T13:51:47.684Z,14.13
2022-08-27T13:54:17.854Z,17.50
2022-08-27T13:57:08.240Z,17.23
2022-08-27T13:59:42.167Z,14.27
2022-08-27T14:02:22.764Z,15.05
2022-08-27T14:04:52.461Z,15.57
2022-08-27T14:07:24.746Z,15.15
2022-08-27T14:09:55.939Z,16.27
2022-08-27T14:12:32.945Z,15.95
2022-08-27T14:15:11.899Z,15.00
2022-08-27T14:17:39.655Z,13.88
2022-08-27T14:20:09.292Z,14.30
2022-08-27T14:22:37.137Z,15.50
2022-08-27T14:25:07.204Z,16.42
2022-08-27T14:27:36.238Z,14.25
2022-08-27T14:30:04.116Z,14.00
2022-08-27T14:32:33.308Z,14.57
2022-08-27T14:35:01.014Z,15.38
2022-08-27T14:37:28.708Z,15.60
2022-08-27T14:39:56.629Z,15.25
2022-08-27T14:42:25.782Z,15.85
2022-08-27T14:44:56.453Z,17.13
2022-08-27T14:47:26.706Z,14.32
2022-08-27T14:49:55.283Z,14.73
2022-08-27T14:52:22.956Z,14.05
2022-08-27T14:54:50.595Z,14.77
2022-08-27T14:57:19.395Z,14.38
2022-08-27T14:59:48.415Z,12.82
2022-08-27T15:02:17.143Z,14.93
2022-08-27T15:04:48.012Z,13.63
2022-08-27T15:07:16.124Z,13.97
2022-08-27T15:09:44.749Z,17.75
2022-08-27T15:12:25.883Z,15.82
2022-08-27T15:17:33.321Z,15.68
2022-08-27T15:20:03.305Z,16.15
2022-08-27T15:22:34.034Z,28.75
2022-08-27T15:25:03.183Z,19.20
2022-08-27T15:27:38.000Z,28.75
2022-08-27T15:30:09.956Z,40.63
2022-08-27T15:32:39.808Z,22.03
2022-08-27T15:35:12.245Z,22.77
2022-08-27T15:37:39.948Z,22.23
2022-08-27T15:40:09.340Z,23.02
2022-08-27T15:42:37.121Z,20.80
2022-08-27T15:45:06.118Z,24.77
2022-08-27T15:47:35.346Z,23.63
2022-08-27T15:50:03.259Z,25.77
2022-08-27T15:52:40.600Z,25.05
2022-08-27T15:55:15.469Z,20.77
2022-08-27T15:57:43.142Z,23.00
2022-08-27T16:00:12.201Z,25.48
2022-08-27T16:02:42.034Z,22.33
2022-08-27T16:05:09.967Z,20.02
2022-08-27T16:07:37.746Z,21.02
2022-08-27T16:10:06.658Z,20.75
2022-08-27T16:12:34.765Z,27.83
2022-08-27T16:15:02.603Z,30.88
2022-08-27T16:17:30.272Z,42.45
2022-08-27T16:19:59.347Z,39.50
2022-08-27T16:22:26.992Z,27.83
2022-08-27T16:24:54.746Z,42.10
2022-08-27T16:27:22.395Z,60.80
2022-08-27T16:29:50.957Z,57.13
2022-08-27T16:32:19.987Z,42.90
2022-08-27T16:34:55.383Z,26.63
2022-08-27T16:37:25.397Z,22.80
2022-08-27T16:39:53.401Z,18.27
2022-08-27T16:42:21.357Z,17.15
2022-08-27T16:44:49.065Z,18.33
2022-08-27T16:47:17.027Z,17.17
2022-08-27T16:50:02.522Z,16.27
2022-08-27T16:52:31.586Z,16.48
2022-08-27T16:55:00.172Z,18.88
2022-08-27T16:57:27.984Z,17.30
2022-08-27T16:59:56.266Z,20.67
2022-08-27T17:02:30.391Z,19.70
2022-08-27T17:05:12.319Z,19.70
2022-08-27T17:07:48.971Z,20.00
2022-08-27T17:10:17.262Z,18.92
2022-08-27T17:12:46.233Z,21.13
2022-08-27T17:15:14.797Z,20.38
2022-08-27T17:17:42.589Z,20.33
2022-08-27T17:20:10.915Z,25.55
2022-08-27T17:22:38.817Z,19.98
2022-08-27T17:25:09.369Z,21.63
2022-08-27T17:27:37.119Z,20.50
2022-08-27T17:30:05.647Z,21.65
2022-08-27T17:32:36.210Z,23.25
2022-08-27T17:35:06.298Z,25.13
2022-08-27T17:37:34.142Z,21.58
2022-08-27T17:40:02.081Z,19.77
2022-08-27T17:42:31.629Z,23.95
2022-08-27T17:45:00.049Z,20.85
2022-08-27T17:47:27.838Z,20.40
2022-08-27T17:49:55.506Z,22.73
2022-08-27T17:52:23.615Z,20.30
2022-08-27T17:54:53.683Z,19.48
2022-08-27T17:57:23.645Z,22.33
2022-08-27T17:59:53.457Z,19.75
2022-08-27T18:02:24.287Z,18.35
2022-08-27T18:04:52.406Z,19.50
2022-08-27T18:07:20.498Z,15.63
2022-08-27T18:09:48.588Z,15.73
2022-08-27T18:12:19.222Z,17.10
2022-08-27T18:14:47.059Z,16.00
2022-08-27T18:17:16.148Z,20.50
2022-08-27T18:19:45.857Z,17.42
2022-08-27T18:22:15.416Z,17.17
2022-08-27T18:24:43.065Z,19.52
2022-08-27T18:27:10.770Z,17.35
2022-08-27T18:29:38.402Z,21.80
2022-08-27T18:32:06.206Z,17.40
2022-08-27T18:34:35.457Z,18.13
2022-08-27T18:37:08.651Z,16.77
2022-08-27T18:39:39.457Z,16.58
2022-08-27T18:42:07.567Z,16.08
2022-08-27T18:44:36.952Z,17.02
2022-08-27T18:47:05.019Z,18.45
2022-08-27T18:49:32.760Z,17.67
2022-08-27T18:52:01.914Z,16.38
2022-08-27T18:54:29.678Z,17.02
2022-08-27T18:56:57.348Z,16.60
2022-08-27T18:59:27.197Z,16.95
2022-08-27T19:01:56.064Z,17.45
2022-08-27T19:04:24.534Z,18.52
2022-08-27T19:06:52.293Z,17.00
2022-08-27T19:09:21.453Z,16.02
2022-08-27T19:11:51.386Z,17.00
2022-08-27T19:14:19.087Z,16.98
2022-08-27T19:16:50.342Z,17.90
2022-08-27T19:20:01.340Z,17.08
2022-08-27T19:26:22.582Z,17.15
2022-08-27T19:28:56.670Z,16.00
2022-08-27T19:31:39.395Z,15.90
2022-08-27T19:34:25.065Z,17.60
2022-08-27T19:37:04.836Z,16.25
2022-08-27T19:39:36.376Z,16.55
2022-08-27T19:42:12.570Z,16.42
2022-08-27T19:44:49.531Z,15.70
2022-08-27T19:47:34.477Z,16.83
2022-08-27T19:50:09.337Z,16.75
2022-08-27T19:52:40.443Z,17.35
2022-08-27T19:55:14.100Z,17.58
2022-08-27T19:57:43.633Z,19.05
2022-08-27T20:00:17.158Z,16.08
2022-08-27T20:02:45.424Z,17.30
2022-08-27T20:05:20.373Z,18.02
2022-08-27T20:07:48.661Z,17.20
2022-08-27T20:10:16.703Z,16.77
2022-08-27T20:12:45.822Z,16.67
2022-08-27T20:15:13.851Z,16.60
2022-08-27T20:17:42.868Z,17.25
2022-08-27T20:20:11.781Z,17.80
2022-08-27T20:22:40.673Z,16.55
2022-08-27T20:25:18.151Z,16.67
2022-08-27T20:27:47.688Z,17.10
2022-08-27T20:30:16.087Z,17.13
2022-08-27T20:32:44.108Z,16.98
2022-08-27T20:35:12.298Z,17.55
2022-08-27T20:37:42.429Z,18.35
2022-08-27T20:40:13.752Z,18.77
2022-08-27T20:42:41.664Z,18.23
2022-08-27T20:45:12.322Z,19.35
2022-08-27T20:47:40.587Z,21.40
2022-08-27T20:50:08.844Z,23.02
2022-08-27T20:52:37.052Z,18.48
2022-08-27T20:55:06.595Z,19.15
2022-08-27T20:57:34.319Z,21.33
2022-08-27T21:00:20.100Z,17.55
2022-08-27T21:02:49.087Z,17.13
2022-08-27T21:05:18.553Z,18.70
2022-08-27T21:07:48.809Z,18.88
2022-08-27T21:10:16.868Z,16.83
2022-08-27T21:12:44.781Z,17.75
2022-08-27T21:15:13.811Z,17.45
2022-08-27T21:17:41.464Z,16.13
2022-08-27T21:20:12.074Z,15.20
2022-08-27T21:22:40.111Z,14.73
2022-08-27T21:25:08.486Z,15.18
2022-08-27T21:27:36.394Z,14.45
2022-08-27T21:30:05.878Z,14.68
2022-08-27T21:32:33.566Z,14.70
2022-08-27T21:35:01.706Z,14.40
2022-08-27T21:37:33.014Z,15.40
2022-08-27T21:40:00.776Z,13.07
2022-08-27T21:42:28.460Z,13.63
2022-08-27T21:44:56.163Z,13.70
2022-08-27T21:47:23.860Z,12.93
2022-08-27T21:49:51.540Z,12.05
2022-08-27T21:52:19.276Z,13.30
2022-08-27T21:54:48.348Z,13.00
2022-08-27T21:57:16.453Z,13.02
2022-08-27T21:59:46.970Z,13.43
2022-08-27T22:02:38.946Z,13.13
2022-08-27T22:05:04.196Z,12.57
2022-08-27T22:07:31.943Z,12.98
2022-08-27T22:10:01.001Z,13.38
2022-08-27T22:12:28.703Z,13.13
2022-08-27T22:14:56.325Z,12.52
2022-08-27T22:17:23.949Z,12.35
2022-08-27T22:19:53.862Z,11.90
2022-08-27T22:22:21.479Z,12.18
2022-08-27T22:24:49.274Z,11.50
2022-08-27T22:27:18.247Z,11.10
2022-08-27T22:29:45.996Z,10.68
2022-08-27T22:32:13.655Z,10.50
2022-08-27T22:34:41.253Z,10.60
2022-08-27T22:37:08.921Z,10.40
2022-08-27T22:39:36.764Z,11.00
2022-08-27T22:42:05.172Z,10.45
2022-08-27T22:44:34.228Z,10.20
2022-08-27T22:47:01.959Z,11.15
2022-08-27T22:49:29.583Z,10.48
2022-08-27T22:51:57.177Z,10.07
2022-08-27T22:54:24.807Z,10.50
2022-08-27T22:56:52.439Z,10.07
2022-08-27T22:59:20.254Z,10.50
2022-08-27T23:01:49.208Z,10.10
2022-08-27T23:04:18.480Z,10.07
2022-08-27T23:06:46.228Z,10.10
2022-08-27T23:09:14.020Z,10.73
2022-08-27T23:11:42.013Z,10.88
2022-08-27T23:14:09.691Z,10.35
2022-08-27T23:16:42.738Z,10.07
2022-08-27T23:19:12.212Z,10.18
2022-08-27T23:21:42.736Z,10.13
2022-08-27T23:24:10.487Z,10.15
2022-08-27T23:26:59.398Z,10.02
2022-08-27T23:29:28.274Z,10.38
2022-08-27T23:31:58.406Z,9.90
2022-08-27T23:34:27.703Z,9.85
2022-08-27T23:36:56.130Z,10.43
2022-08-27T23:39:23.790Z,10.27
2022-08-27T23:41:51.410Z,10.43
2022-08-27T23:44:19.024Z,10.18
2022-08-27T23:46:48.441Z,10.20
2022-08-27T23:49:18.255Z,10.50
2022-08-27T23:51:47.230Z,10.02
2022-08-27T23:54:14.867Z,9.90
2022-08-27T23:56:42.506Z,9.98
2022-08-27T23:59:10.114Z,10.77
